American Falls, ID

9:35 AM MST on December 19, 2014 (GMT -0700)
RAWS CRYSTAL ID US | Change Station
CLOSE
Current Station
Personal Weather Station
Location: Aberdeen, ID
Elevation: 5055 ft
Nearby Weather Stations

Elev 5055 ft 42.99 °N, 113.18 °W | Updated 48 minutes ago

Overcast
Overcast
31 °F
Feels Like 26 °F
N
5
Wind Variable Wind from ESE
Gusts 8.0 mph

Today
High -- | Low -- °F
--% Chance of Precip.
Yesterday
High -- | Low -- °F
Precip. -- in
7:58 AM 5:00 PM
Waning Crescent, 7% visible
Pressure 30.16 in
Visibility 10.0 miles
Clouds Few 3700 ft
Mostly Cloudy 7500 ft
Windchill 26 °F
Dew Point 28 °F
Humidity 90%
Rainfall 0.00 in
Snow Depth Not available.
UV 0 out of 12
Pollen .10 out of 12
Air Quality Not available.
Flu Activity Not available.
METAR KPIH 191553Z COR 14007G17KT 110V170 10SM FEW037 BKN075 03/M02 A3012 RMK AO2 RAB25E31SNB15E25 SLP211 P0000 T00331017

More Conditions Fewer Conditions

Pressure 30.16 in
Visibility 10.0 miles
Clouds Few 3700 ft
Mostly Cloudy 7500 ft
Windchill 26 °F
Dew Point 28 °F
Humidity 90%
Rainfall 0.00 in
Snow Depth Not available.
UV 0 out of 12
Pollen .10 out of 12
Air Quality Not available.
Flu Activity Not available.
METAR KPIH 191553Z COR 14007G17KT 110V170 10SM FEW037 BKN075 03/M02 A3012 RMK AO2 RAB25E31SNB15E25 SLP211 P0000 T00331017

More Conditions Fewer Conditions

10-Day Weather Forecast

Almanac

Astronomy

Dec. 19, 2014 Rise Set
Actual Time
Civil Twilight
Nautical Twilight
Astronomical Twilight
Moon
Length of Visible Light
Length of Day
Tomorrow will be .
, % of the Moon is Illuminated

Today's Extremes

State Highs State Lows

Community

WunderPhotos

Upload Photos

1,779,005 photos uploaded!

WunderBlogs® & News

Nearby

Air Quality

  Air Quality AQ Index Pollutant
Not available.

Snow Depth

Station Depth Elevation

Earthquake Activity

City Distance Mag. Time & Date
Minimum magnitude displayed is 2.5.

Coastal Water Temperatures

Place Temperature

Nearby Weather Stations